Time;durP1;ratioP1;P1;durP2;ratioP2;P2;SDS_P1;SDS_P2;PMS_P1;PMS_P2;Temp;Humidity;BMP_temperature;BMP_pressure;BME280_temperature;BME280_humidity;BME280_pressure;Samples;Min_cycle;Max_cycle;Signal;HPM_P1;HPM_P2
2023/04/24 00:01:12;;;;;;;33.53;6.67;;;16.90;59.00;;;;;;5068188;28;20222;-90
2023/04/24 00:03:40;;;;;;;26.50;6.10;;;16.90;59.00;;;;;;5065719;28;20238;-90
2023/04/24 00:06:07;;;;;;;32.63;6.67;;;16.90;59.00;;;;;;5067306;28;20311;-91
2023/04/24 00:08:34;;;;;;;55.70;8.40;;;16.80;58.90;;;;;;5066584;28;20527;-90
2023/04/24 00:11:03;;;;;;;37.80;6.93;;;16.80;58.90;;;;;;5067299;28;20296;-90
2023/04/24 00:13:30;;;;;;;35.07;6.73;;;16.90;59.00;;;;;;5065624;28;20231;-90
2023/04/24 00:15:57;;;;;;;65.97;9.20;;;16.80;58.90;;;;;;5067698;28;20209;-90
2023/04/24 00:18:24;;;;;;;39.17;7.40;;;16.80;58.90;;;;;;5069557;28;20701;-90
2023/04/24 00:20:51;;;;;;;35.33;6.93;;;16.80;58.90;;;;;;5067929;28;20301;-90
2023/04/24 00:23:18;;;;;;;52.80;8.13;;;16.80;58.90;;;;;;5062594;28;20294;-89
2023/04/24 00:25:45;;;;;;;29.90;6.50;;;16.80;58.90;;;;;;5068515;28;21090;-90
2023/04/24 00:28:13;;;;;;;51.60;8.07;;;16.80;58.90;;;;;;5067063;28;20215;-90
2023/04/24 00:30:41;;;;;;;49.33;8.00;;;16.80;58.90;;;;;;5066389;28;21296;-89
2023/04/24 00:33:08;;;;;;;36.33;7.00;;;16.80;58.90;;;;;;5068833;28;20259;-90
2023/04/24 00:35:35;;;;;;;70.27;9.67;;;16.80;58.90;;;;;;5065326;28;20301;-90
2023/04/24 00:38:02;;;;;;;36.40;7.17;;;16.80;58.90;;;;;;5065491;28;20278;-92
2023/04/24 00:40:30;;;;;;;58.20;8.90;;;16.70;58.80;;;;;;5065468;28;20634;-90
2023/04/24 00:42:57;;;;;;;28.40;6.60;;;16.70;58.80;;;;;;5051838;28;20201;-90
2023/04/24 00:45:25;;;;;;;51.77;8.67;;;16.70;58.90;;;;;;5048372;28;20224;-90
2023/04/24 00:47:53;;;;;;;34.10;7.00;;;16.70;58.90;;;;;;5066760;28;20744;-91
2023/04/24 00:50:22;;;;;;;33.60;7.20;;;16.70;58.90;;;;;;5068757;28;20291;-92
2023/04/24 00:52:49;;;;;;;32.00;6.60;;;16.70;58.90;;;;;;5072890;28;20331;-91
2023/04/24 00:55:16;;;;;;;45.77;8.17;;;16.70;58.90;;;;;;5060012;28;20880;-91
2023/04/24 00:57:45;;;;;;;40.63;7.77;;;16.70;58.90;;;;;;5070032;28;20680;-91
2023/04/24 01:00:14;;;;;;;38.60;7.53;;;16.70;58.90;;;;;;5066397;28;20631;-91
2023/04/24 01:02:44;;;;;;;34.00;7.23;;;16.70;58.90;;;;;;5066675;28;20242;-91
2023/04/24 01:05:12;;;;;;;35.47;7.30;;;16.70;58.90;;;;;;5067792;28;20216;-92
2023/04/24 01:07:43;;;;;;;38.47;7.67;;;16.70;58.90;;;;;;5066092;28;20195;-93
2023/04/24 01:10:11;;;;;;;30.37;7.57;;;16.70;58.90;;;;;;5066660;28;20584;-92
2023/04/24 01:12:38;;;;;;;36.30;8.23;;;16.70;58.90;;;;;;5068449;28;20275;-93
2023/04/24 01:15:06;;;;;;;63.87;10.73;;;16.70;58.90;;;;;;5047669;28;20674;-92
2023/04/24 01:17:33;;;;;;;39.97;8.57;;;16.60;59.40;;;;;;5060973;28;20205;-92
2023/04/24 01:20:05;;;;;;;36.40;8.47;;;16.60;58.90;;;;;;5067289;28;20199;-93
2023/04/24 01:22:34;;;;;;;47.73;9.37;;;16.60;58.90;;;;;;5068260;28;20212;-93
2023/04/24 01:25:01;;;;;;;33.87;7.93;;;16.60;58.90;;;;;;5065694;28;20317;-92
2023/04/24 01:27:28;;;;;;;53.73;9.93;;;16.60;58.90;;;;;;5067101;28;20261;-93
2023/04/24 01:29:55;;;;;;;35.97;8.47;;;16.60;58.90;;;;;;5067674;28;20726;-92
2023/04/24 01:32:23;;;;;;;41.00;8.87;;;16.60;58.90;;;;;;5068294;28;20588;-92
2023/04/24 01:34:50;;;;;;;42.63;9.37;;;16.60;58.90;;;;;;5067401;28;20278;-93
2023/04/24 01:37:17;;;;;;;57.87;10.57;;;16.60;58.90;;;;;;5067653;28;20647;-93
2023/04/24 01:39:46;;;;;;;40.33;8.90;;;16.60;58.90;;;;;;5067621;28;20194;-92
2023/04/24 01:42:14;;;;;;;37.13;8.53;;;16.60;59.00;;;;;;5066819;28;20821;-92
2023/04/24 01:44:41;;;;;;;40.37;8.10;;;16.60;59.00;;;;;;5065564;28;20198;-93
2023/04/24 01:47:10;;;;;;;33.93;8.07;;;16.60;59.00;;;;;;5066678;28;21066;-92
2023/04/24 01:49:38;;;;;;;41.43;8.87;;;16.60;59.60;;;;;;5045899;28;20206;-92
2023/04/24 01:52:06;;;;;;;54.70;9.83;;;16.60;59.00;;;;;;5064669;28;20207;-93
2023/04/24 01:54:33;;;;;;;33.00;7.43;;;16.50;58.90;;;;;;5066369;28;20297;-92
2023/04/24 01:57:03;;;;;;;40.27;8.40;;;16.50;58.90;;;;;;5067713;28;20220;-92
2023/04/24 01:59:32;;;;;;;31.13;7.73;;;16.50;58.90;;;;;;5066151;28;20297;-93
2023/04/24 02:01:59;;;;;;;35.63;7.87;;;16.50;58.90;;;;;;5066869;28;20218;-94
2023/04/24 02:04:26;;;;;;;29.20;7.43;;;16.50;58.90;;;;;;5067131;28;20209;-93
2023/04/24 02:06:53;;;;;;;40.73;7.43;;;16.50;59.00;;;;;;5062104;28;20294;-92
2023/04/24 02:09:20;;;;;;;59.77;9.87;;;16.50;59.00;;;;;;5065318;28;20577;-93
2023/04/24 02:11:47;;;;;;;46.30;8.47;;;16.50;59.00;;;;;;5067621;28;20672;-92
2023/04/24 02:14:15;;;;;;;39.60;7.87;;;16.50;59.00;;;;;;5066416;28;20717;-92
2023/04/24 02:16:43;;;;;;;62.37;9.83;;;16.50;59.00;;;;;;5067430;28;20301;-92
2023/04/24 02:19:10;;;;;;;33.33;7.00;;;16.50;59.00;;;;;;5059779;28;20638;-92
2023/04/24 02:21:37;;;;;;;48.23;8.43;;;16.50;59.00;;;;;;5068659;28;20302;-92
2023/04/24 02:24:04;;;;;;;46.67;8.17;;;16.50;59.00;;;;;;5057255;28;20203;-91
2023/04/24 02:26:31;;;;;;;34.43;7.03;;;16.40;58.90;;;;;;5031313;28;20548;-92
2023/04/24 02:28:58;;;;;;;52.00;9.10;;;16.50;59.00;;;;;;5068323;28;20312;-91
2023/04/24 02:31:27;;;;;;;46.07;7.87;;;16.50;59.10;;;;;;5052138;28;20242;-91
2023/04/24 02:33:54;;;;;;;42.67;7.73;;;16.50;59.10;;;;;;5061476;28;20240;-91
2023/04/24 02:36:21;;;;;;;36.73;8.00;;;16.50;59.00;;;;;;5070102;28;20306;-91
2023/04/24 02:38:48;;;;;;;39.67;7.63;;;16.50;59.10;;;;;;5052075;28;20206;-92
2023/04/24 02:41:15;;;;;;;37.67;7.27;;;16.50;59.10;;;;;;5069876;28;20604;-92
2023/04/24 02:43:42;;;;;;;40.17;7.50;;;16.40;59.00;;;;;;5071249;28;20557;-92
2023/04/24 02:46:09;;;;;;;36.27;7.70;;;16.40;59.00;;;;;;5069694;28;20241;-91
2023/04/24 02:48:37;;;;;;;74.20;10.90;;;16.50;59.10;;;;;;5068703;28;20292;-91
2023/04/24 02:51:06;;;;;;;38.90;7.40;;;16.40;59.00;;;;;;5070228;28;20221;-92
2023/04/24 02:53:33;;;;;;;33.83;7.63;;;16.40;59.10;;;;;;5069979;28;20320;-91
2023/04/24 02:56:00;;;;;;;58.20;9.03;;;16.40;59.00;;;;;;5068544;28;20294;-91
2023/04/24 02:58:28;;;;;;;35.80;7.80;;;16.40;59.00;;;;;;5052115;28;20265;-91
2023/04/24 03:00:56;;;;;;;37.00;7.10;;;16.40;59.00;;;;;;5068905;28;20282;-91
2023/04/24 03:03:23;;;;;;;65.33;10.23;;;16.40;59.00;;;;;;5068603;28;20207;-91
2023/04/24 03:05:51;;;;;;;30.27;7.37;;;16.40;59.10;;;;;;5066583;28;20205;-91
2023/04/24 03:08:19;;;;;;;40.93;7.93;;;16.40;59.00;;;;;;5070479;28;20740;-92
2023/04/24 03:10:46;;;;;;;34.57;7.83;;;16.40;59.10;;;;;;5066290;28;20294;-92
2023/04/24 03:13:13;;;;;;;44.23;8.60;;;16.40;59.10;;;;;;5068420;28;20324;-91
2023/04/24 03:15:40;;;;;;;38.27;8.30;;;16.40;59.10;;;;;;5052254;28;20203;-92
2023/04/24 03:18:07;;;;;;;80.40;11.17;;;16.40;59.10;;;;;;5064748;28;20917;-91
2023/04/24 03:20:34;;;;;;;51.00;9.03;;;16.40;59.10;;;;;;5067909;28;20608;-92
2023/04/24 03:23:02;;;;;;;34.77;7.87;;;16.30;59.10;;;;;;5068921;28;20259;-91
2023/04/24 03:25:29;;;;;;;34.40;7.93;;;16.30;59.00;;;;;;5066924;28;20206;-91
2023/04/24 03:27:56;;;;;;;47.77;9.13;;;16.30;59.00;;;;;;5070222;28;20697;-91
2023/04/24 03:30:24;;;;;;;40.50;8.13;;;16.30;59.00;;;;;;5067743;28;20294;-92
2023/04/24 03:32:51;;;;;;;59.60;9.60;;;16.30;59.00;;;;;;5062420;28;20703;-92
2023/04/24 03:35:18;;;;;;;37.40;8.03;;;16.30;59.00;;;;;;5069437;28;20203;-92
2023/04/24 03:37:45;;;;;;;37.77;8.43;;;16.30;59.00;;;;;;5069422;28;20358;-92
2023/04/24 03:40:14;;;;;;;61.80;10.13;;;16.30;59.10;;;;;;5062134;28;20207;-91
2023/04/24 03:42:40;;;;;;;33.87;8.17;;;16.30;59.10;;;;;;5065777;28;20204;-91
2023/04/24 03:45:09;;;;;;;43.53;9.07;;;16.30;59.10;;;;;;5069553;28;20980;-92
2023/04/24 03:47:36;;;;;;;63.37;10.30;;;16.30;59.10;;;;;;5069095;28;20200;-92
2023/04/24 03:50:03;;;;;;;37.70;8.40;;;16.30;59.10;;;;;;5067130;28;20312;-92
2023/04/24 03:52:30;;;;;;;32.70;7.37;;;16.20;59.00;;;;;;5067750;28;20221;-91
2023/04/24 03:54:57;;;;;;;48.47;9.23;;;16.20;59.00;;;;;;5067947;28;20666;-91
2023/04/24 03:57:26;;;;;;;43.30;8.40;;;16.30;59.10;;;;;;5067963;28;20241;-92
2023/04/24 03:59:53;;;;;;;31.13;8.07;;;16.20;59.00;;;;;;5069328;28;20235;-92
2023/04/24 04:02:20;;;;;;;37.00;8.00;;;16.20;59.10;;;;;;5068235;28;20318;-92
2023/04/24 04:04:47;;;;;;;38.27;8.70;;;16.20;59.10;;;;;;5066434;28;20200;-91
2023/04/24 04:07:17;;;;;;;34.23;7.97;;;16.20;59.10;;;;;;5070023;28;20288;-91
2023/04/24 04:09:44;;;;;;;48.87;9.07;;;16.20;59.10;;;;;;5069130;28;20192;-91
2023/04/24 04:12:11;;;;;;;47.63;9.47;;;16.20;59.10;;;;;;5067938;28;20294;-90
2023/04/24 04:14:39;;;;;;;45.53;9.20;;;16.20;59.10;;;;;;5067002;28;20327;-91
2023/04/24 04:17:06;;;;;;;36.83;8.23;;;16.20;59.10;;;;;;5069375;28;20246;-91
2023/04/24 04:19:33;;;;;;;42.83;8.43;;;16.20;59.10;;;;;;5067659;28;20298;-91
2023/04/24 04:22:00;;;;;;;56.60;9.70;;;16.20;59.10;;;;;;5068830;28;20296;-91
2023/04/24 04:24:28;;;;;;;38.90;8.33;;;16.20;59.10;;;;;;5049050;28;20287;-90
2023/04/24 04:26:56;;;;;;;38.57;8.43;;;16.10;59.10;;;;;;5049056;28;20256;-91
2023/04/24 04:29:23;;;;;;;37.70;8.10;;;16.10;59.00;;;;;;5054689;28;20201;-92
2023/04/24 04:31:52;;;;;;;43.37;8.80;;;16.20;59.10;;;;;;5074538;28;20195;-92
2023/04/24 04:34:19;;;;;;;43.57;9.07;;;16.10;59.00;;;;;;5080612;28;20288;-91
2023/04/24 04:36:46;;;;;;;44.23;8.80;;;16.20;59.10;;;;;;5069325;28;20705;-91
2023/04/24 04:39:14;;;;;;;44.30;8.77;;;16.10;59.00;;;;;;5066259;28;20239;-91
2023/04/24 04:41:41;;;;;;;33.23;7.83;;;16.10;59.00;;;;;;5058625;28;20294;-91
2023/04/24 04:44:09;;;;;;;39.63;8.47;;;16.10;59.00;;;;;;5070043;28;20355;-91
2023/04/24 04:46:38;;;;;;;27.33;7.50;;;16.10;59.00;;;;;;5068078;28;20215;-93
2023/04/24 04:49:08;;;;;;;31.60;8.00;;;16.10;59.00;;;;;;5051564;28;20294;-93
2023/04/24 04:51:35;;;;;;;58.27;10.13;;;16.10;59.00;;;;;;5085454;28;20200;-93
2023/04/24 04:54:02;;;;;;;36.83;8.70;;;16.10;59.00;;;;;;5074842;28;20665;-93
2023/04/24 04:56:29;;;;;;;25.13;7.27;;;16.10;59.00;;;;;;5068250;28;20207;-92
2023/04/24 04:58:56;;;;;;;27.67;7.60;;;16.00;58.90;;;;;;5070861;28;20200;-93
2023/04/24 05:01:27;;;;;;;66.40;10.63;;;16.00;58.90;;;;;;5067814;28;20705;-93
2023/04/24 05:03:54;;;;;;;44.70;9.50;;;16.00;58.90;;;;;;5066445;28;20410;-93
2023/04/24 05:06:24;;;;;;;51.77;9.87;;;16.10;59.00;;;;;;5068280;28;20205;-93
2023/04/24 05:08:51;;;;;;;41.03;8.47;;;16.10;59.10;;;;;;5065438;28;20204;-93
2023/04/24 05:11:18;;;;;;;39.53;9.40;;;16.10;59.00;;;;;;5067003;28;20223;-92
2023/04/24 05:13:45;;;;;;;43.20;9.33;;;16.00;58.90;;;;;;5068838;28;20780;-92
2023/04/24 05:16:12;;;;;;;47.07;9.33;;;16.00;58.90;;;;;;5068302;28;20209;-92
2023/04/24 05:18:39;;;;;;;40.20;9.60;;;16.00;58.90;;;;;;5066882;28;20818;-93
2023/04/24 05:21:06;;;;;;;46.17;9.57;;;16.00;58.90;;;;;;5066518;28;20204;-91
2023/04/24 05:23:35;;;;;;;40.40;9.50;;;16.00;59.00;;;;;;5067886;28;20208;-92
2023/04/24 05:26:02;;;;;;;57.47;10.57;;;16.00;59.00;;;;;;5064077;28;20211;-91
2023/04/24 05:28:29;;;;;;;38.60;8.97;;;16.00;58.90;;;;;;5066412;28;20629;-92
2023/04/24 05:30:56;;;;;;;35.17;9.07;;;16.00;58.90;;;;;;5062726;28;20296;-92
2023/04/24 05:33:24;;;;;;;43.47;9.70;;;16.00;58.90;;;;;;5067030;28;20667;-92
2023/04/24 05:35:51;;;;;;;67.73;10.83;;;16.00;58.90;;;;;;5066391;28;20575;-92
2023/04/24 05:38:19;;;;;;;39.63;8.57;;;16.00;59.00;;;;;;5056928;28;20205;-92
2023/04/24 05:40:48;;;;;;;35.50;8.70;;;16.00;59.00;;;;;;5060182;28;20251;-92
2023/04/24 05:43:15;;;;;;;72.70;11.80;;;16.00;59.00;;;;;;5065535;28;20236;-92
2023/04/24 05:45:42;;;;;;;50.80;10.13;;;16.00;59.00;;;;;;5066881;28;20225;-93
2023/04/24 05:48:09;;;;;;;44.47;9.67;;;16.00;59.00;;;;;;5085219;28;20202;-92
2023/04/24 05:50:37;;;;;;;52.07;9.87;;;16.00;59.00;;;;;;5070911;28;20195;-92
2023/04/24 05:53:06;;;;;;;36.27;8.37;;;16.00;59.00;;;;;;5068761;28;20227;-93
2023/04/24 05:55:35;;;;;;;36.73;8.50;;;15.90;58.90;;;;;;5067767;28;20778;-92
2023/04/24 05:58:04;;;;;;;34.07;8.80;;;15.90;58.90;;;;;;5068755;28;20298;-93
2023/04/24 06:00:32;;;;;;;31.50;8.47;;;15.90;58.90;;;;;;5067161;28;20615;-92
2023/04/24 06:03:03;;;;;;;51.97;9.67;;;16.00;59.00;;;;;;5068343;28;20209;-93
2023/04/24 06:05:30;;;;;;;56.87;9.73;;;15.90;58.90;;;;;;5065107;28;20241;-92
2023/04/24 06:08:01;;;;;;;57.43;10.30;;;15.90;58.90;;;;;;5069885;28;20679;-92
2023/04/24 06:10:29;;;;;;;39.63;9.00;;;15.90;59.00;;;;;;5070114;28;20314;-92
2023/04/24 06:13:00;;;;;;;45.67;9.43;;;15.90;59.00;;;;;;5070967;28;20235;-91
2023/04/24 06:15:30;;;;;;;47.40;9.50;;;15.90;59.00;;;;;;5071611;28;20228;-92
2023/04/24 06:17:57;;;;;;;45.73;8.83;;;15.90;59.00;;;;;;5072399;28;20218;-92
2023/04/24 06:20:24;;;;;;;33.37;7.83;;;15.90;59.00;;;;;;5072919;28;20223;-92
2023/04/24 06:22:51;;;;;;;32.87;8.43;;;15.90;59.00;;;;;;5070408;28;20229;-92
2023/04/24 06:25:18;;;;;;;38.83;9.10;;;15.90;59.00;;;;;;5069048;28;20330;-92
2023/04/24 06:27:45;;;;;;;59.73;9.97;;;15.90;59.00;;;;;;5069650;28;20227;-92
2023/04/24 06:30:13;;;;;;;50.07;9.10;;;15.90;59.00;;;;;;5066527;28;20205;-91
2023/04/24 06:32:42;;;;;;;62.93;10.47;;;15.90;59.00;;;;;;5067696;28;20201;-91
2023/04/24 06:35:09;;;;;;;32.20;8.27;;;15.90;59.00;;;;;;5070840;28;20317;-92
2023/04/24 06:37:37;;;;;;;43.33;8.47;;;15.90;59.00;;;;;;5070911;28;20662;-92
2023/04/24 06:40:05;;;;;;;52.47;8.93;;;15.90;59.00;;;;;;5064874;28;20278;-92
2023/04/24 06:42:32;;;;;;;34.83;8.13;;;15.90;59.00;;;;;;5070386;28;20206;-91
2023/04/24 06:45:00;;;;;;;54.40;9.03;;;15.90;59.00;;;;;;5070262;28;20227;-91
2023/04/24 06:47:27;;;;;;;50.93;8.70;;;15.90;59.00;;;;;;5078771;28;20363;-91
2023/04/24 06:49:55;;;;;;;42.23;8.50;;;15.90;59.10;;;;;;5059907;28;20731;-92
2023/04/24 06:52:24;;;;;;;30.33;7.30;;;15.90;59.10;;;;;;5071296;28;20307;-91
2023/04/24 06:54:51;;;;;;;41.50;8.37;;;15.90;59.10;;;;;;5068792;28;20231;-91
2023/04/24 06:57:18;;;;;;;34.90;7.40;;;15.80;59.00;;;;;;5070766;28;20291;-91
2023/04/24 06:59:45;;;;;;;34.87;8.33;;;15.90;59.10;;;;;;5070540;28;20862;-91
2023/04/24 07:02:12;;;;;;;65.47;10.13;;;15.80;59.00;;;;;;5067613;28;20304;-91
2023/04/24 07:04:39;;;;;;;36.17;7.77;;;15.80;59.00;;;;;;5067686;28;20231;-92
2023/04/24 07:07:09;;;;;;;34.67;7.77;;;15.90;59.10;;;;;;5069737;28;20218;-92
2023/04/24 07:09:38;;;;;;;56.97;9.33;;;15.90;59.10;;;;;;5064833;28;20196;-91
2023/04/24 07:12:05;;;;;;;50.73;8.67;;;15.90;59.10;;;;;;5061282;28;20209;-93
2023/04/24 07:14:33;;;;;;;28.27;7.10;;;15.80;59.10;;;;;;5066629;28;20230;-94
2023/04/24 07:17:04;;;;;;;31.93;7.40;;;15.90;59.10;;;;;;5069507;28;20282;-93
2023/04/24 07:19:31;;;;;;;53.10;9.17;;;15.90;59.20;;;;;;5068040;28;20261;-93
2023/04/24 07:21:58;;;;;;;36.37;8.47;;;15.80;59.00;;;;;;5070028;28;20712;-96
2023/04/24 07:24:26;;;;;;;42.13;8.57;;;15.90;59.20;;;;;;5075890;28;20870;-93
2023/04/24 07:26:55;;;;;;;29.23;7.00;;;15.90;59.20;;;;;;5059818;28;20241;-93
2023/04/24 07:29:22;;;;;;;27.47;7.03;;;15.80;59.10;;;;;;5072792;28;20223;-92
2023/04/24 07:31:49;;;;;;;28.67;7.03;;;15.90;59.20;;;;;;5070826;28;20203;-94
2023/04/24 07:34:16;;;;;;;31.37;7.53;;;15.80;59.10;;;;;;5070444;28;20247;-94
2023/04/24 07:36:43;;;;;;;52.67;8.90;;;15.80;59.10;;;;;;5069427;28;20203;-92
2023/04/24 07:39:10;;;;;;;25.47;7.13;;;15.80;59.10;;;;;;5070278;28;20202;-93
2023/04/24 07:41:38;;;;;;;33.07;7.60;;;15.80;59.10;;;;;;5066919;28;20204;-93
2023/04/24 07:44:05;;;;;;;92.77;11.70;;;15.80;59.20;;;;;;5067961;28;20265;-89
2023/04/24 07:46:33;;;;;;;35.83;7.40;;;15.80;59.10;;;;;;5067549;28;20294;-94
2023/04/24 07:49:01;;;;;;;35.10;7.53;;;15.80;59.00;;;;;;5069341;28;20302;-92
2023/04/24 07:51:28;;;;;;;34.67;7.60;;;15.80;59.10;;;;;;5069028;28;20229;-92
2023/04/24 07:53:55;;;;;;;25.57;6.70;;;15.80;59.10;;;;;;5070868;28;20218;-91
2023/04/24 07:56:22;;;;;;;30.80;7.50;;;15.80;59.10;;;;;;5069812;28;20490;-93
2023/04/24 07:58:50;;;;;;;26.20;7.40;;;15.80;59.10;;;;;;5070195;28;20732;-93
2023/04/24 08:01:18;;;;;;;34.53;7.70;;;15.80;59.10;;;;;;5067730;28;20252;-94
2023/04/24 08:03:45;;;;;;;27.67;6.80;;;15.80;59.10;;;;;;5070208;28;20288;-93
2023/04/24 08:06:12;;;;;;;34.40;7.57;;;15.80;59.10;;;;;;5086331;28;20198;-93
2023/04/24 08:08:39;;;;;;;32.17;7.03;;;15.90;59.20;;;;;;5095847;28;20201;-92
2023/04/24 08:11:06;;;;;;;24.40;6.33;;;15.90;59.20;;;;;;5083027;28;20544;-92
2023/04/24 08:13:33;;;;;;;30.33;7.30;;;15.90;59.20;;;;;;5071951;28;20705;-92
2023/04/24 08:16:02;;;;;;;21.07;6.27;;;15.90;59.20;;;;;;5069967;28;20917;-92
2023/04/24 08:18:29;;;;;;;18.93;6.17;;;15.90;59.20;;;;;;5069979;28;20223;-92
2023/04/24 08:21:01;;;;;;;16.23;5.77;;;15.90;59.20;;;;;;5086510;28;20225;-92
2023/04/24 08:23:28;;;;;;;22.97;6.83;;;15.90;59.20;;;;;;5071758;28;20199;-93
2023/04/24 08:25:57;;;;;;;21.73;7.03;;;15.80;59.20;;;;;;5053770;28;20200;-92
2023/04/24 08:28:25;;;;;;;41.90;8.27;;;15.90;59.30;;;;;;5069035;28;20225;-92
2023/04/24 08:30:54;;;;;;;24.43;6.53;;;15.90;59.30;;;;;;5067086;28;20613;-93
2023/04/24 08:33:23;;;;;;;45.07;7.90;;;15.90;59.30;;;;;;5069293;28;20290;-92
2023/04/24 08:35:50;;;;;;;29.40;6.87;;;15.90;59.30;;;;;;5061328;28;20238;-91
2023/04/24 08:38:17;;;;;;;34.87;7.17;;;15.90;59.30;;;;;;5065919;28;20217;-90
2023/04/24 08:40:45;;;;;;;34.67;7.40;;;15.90;59.30;;;;;;5051126;28;20289;-91
2023/04/24 08:43:14;;;;;;;30.47;7.10;;;15.90;59.30;;;;;;5068746;28;20287;-91
2023/04/24 08:45:41;;;;;;;28.00;6.50;;;15.90;59.30;;;;;;5069016;28;20300;-90
2023/04/24 08:48:09;;;;;;;47.10;7.93;;;15.90;59.30;;;;;;5064411;28;20207;-91
2023/04/24 08:50:40;;;;;;;46.10;8.40;;;15.90;59.30;;;;;;5060482;28;20322;-91
2023/04/24 08:53:09;;;;;;;32.50;6.93;;;15.90;59.30;;;;;;5065086;28;20203;-90
2023/04/24 08:55:37;;;;;;;44.83;8.00;;;16.00;59.40;;;;;;5066233;28;20242;-90
2023/04/24 08:58:05;;;;;;;26.53;6.73;;;16.00;59.30;;;;;;5063627;28;20213;-90
2023/04/24 09:00:33;;;;;;;51.00;8.60;;;16.00;59.30;;;;;;5055824;28;20600;-89
2023/04/24 09:03:03;;;;;;;34.00;7.30;;;16.00;59.30;;;;;;5067359;28;20926;-90
2023/04/24 09:05:30;;;;;;;65.43;10.13;;;16.00;59.30;;;;;;5061632;28;20590;-90
2023/04/24 09:08:00;;;;;;;29.17;7.10;;;16.10;59.50;;;;;;5060217;28;20278;-89
2023/04/24 09:10:30;;;;;;;45.43;8.70;;;16.00;59.30;;;;;;5057171;28;20559;-90
2023/04/24 09:13:01;;;;;;;56.10;8.93;;;16.00;59.30;;;;;;5063972;28;21441;-89
2023/04/24 09:15:30;;;;;;;35.07;7.67;;;16.00;59.30;;;;;;5066164;28;20281;-91
2023/04/24 09:17:57;;;;;;;33.67;7.07;;;16.00;59.30;;;;;;5066688;28;20730;-91
2023/04/24 09:20:25;;;;;;;50.43;8.73;;;16.10;59.40;;;;;;5064360;28;20579;-90
2023/04/24 09:22:56;;;;;;;46.73;8.17;;;16.10;59.40;;;;;;5062564;28;20698;-90
2023/04/24 09:25:31;;;;;;;27.30;6.57;;;16.10;59.40;;;;;;5063439;28;20619;-90
2023/04/24 09:28:02;;;;;;;50.10;8.20;;;16.10;59.40;;;;;;5065281;28;20255;-90
2023/04/24 09:30:29;;;;;;;33.33;7.43;;;16.10;59.40;;;;;;5063404;28;20525;-89
2023/04/24 09:33:11;;;;;;;30.70;6.93;;;16.10;59.40;;;;;;5061880;28;20742;-88
2023/04/24 09:35:41;;;;;;;34.63;7.30;;;16.10;59.40;;;;;;5062923;28;20232;-89
2023/04/24 09:38:36;;;;;;;74.37;10.47;;;16.10;59.40;;;;;;5064603;28;20289;-93
2023/04/24 09:41:06;;;;;;;34.10;7.50;;;16.10;59.40;;;;;;5064494;28;20211;-91
2023/04/24 09:43:33;;;;;;;31.97;7.07;;;16.20;59.50;;;;;;5068084;28;20205;-91
2023/04/24 09:46:05;;;;;;;30.87;7.00;;;16.10;59.40;;;;;;5068559;28;20281;-90
2023/04/24 09:48:33;;;;;;;26.47;6.83;;;16.10;59.40;;;;;;5059967;28;20321;-91
2023/04/24 09:51:03;;;;;;;47.60;8.47;;;16.20;59.60;;;;;;5065775;28;20810;-92
2023/04/24 09:53:32;;;;;;;66.30;9.33;;;16.20;59.50;;;;;;5057143;28;20200;-91
2023/04/24 09:56:09;;;;;;;33.10;7.37;;;16.20;59.50;;;;;;5064860;28;20241;-91
2023/04/24 09:58:36;;;;;;;36.00;7.33;;;16.20;59.50;;;;;;5052553;28;20209;-90
2023/04/24 10:01:04;;;;;;;23.37;7.00;;;16.20;59.50;;;;;;5066169;28;20216;-91
2023/04/24 10:03:34;;;;;;;32.53;7.33;;;16.30;59.60;;;;;;5065472;28;20345;-91
2023/04/24 10:06:02;;;;;;;31.80;7.33;;;16.20;59.50;;;;;;5067630;28;20747;-91
2023/04/24 10:08:35;;;;;;;64.23;9.53;;;16.30;59.60;;;;;;5051360;28;20616;-91
2023/04/24 10:11:05;;;;;;;26.50;6.47;;;16.30;59.60;;;;;;5066858;28;20207;-91
2023/04/24 10:13:33;;;;;;;28.93;6.80;;;16.30;59.60;;;;;;5067346;28;20279;-91
2023/04/24 10:16:01;;;;;;;29.43;7.03;;;16.30;59.60;;;;;;5066247;28;20317;-91
2023/04/24 10:18:28;;;;;;;34.53;7.50;;;16.30;59.60;;;;;;5067661;28;20345;-91
2023/04/24 10:20:55;;;;;;;39.40;7.33;;;16.30;59.60;;;;;;5066813;28;20294;-91
2023/04/24 10:23:23;;;;;;;26.47;6.57;;;16.30;59.60;;;;;;5067952;28;20731;-91
2023/04/24 10:25:51;;;;;;;31.40;6.87;;;16.30;59.60;;;;;;5062776;28;20237;-91
2023/04/24 10:28:20;;;;;;;24.87;6.70;;;16.40;59.70;;;;;;5067812;28;20333;-91
2023/04/24 10:30:49;;;;;;;40.00;7.60;;;16.40;59.70;;;;;;5067435;28;20196;-91
2023/04/24 10:33:18;;;;;;;27.57;6.73;;;16.40;59.70;;;;;;5066023;28;20200;-91
2023/04/24 10:35:48;;;;;;;28.67;6.37;;;16.40;59.70;;;;;;5067806;28;20239;-91
2023/04/24 10:38:23;;;;;;;29.37;6.80;;;16.40;59.70;;;;;;5066885;28;20225;-91
2023/04/24 10:40:50;;;;;;;39.90;7.23;;;16.40;59.70;;;;;;5066120;28;20702;-90
2023/04/24 10:43:20;;;;;;;45.97;7.90;;;16.50;59.80;;;;;;5063125;28;20708;-91
2023/04/24 10:46:03;;;;;;;31.50;6.37;;;16.50;59.80;;;;;;5065859;28;20300;-90
2023/04/24 10:48:30;;;;;;;24.33;6.13;;;16.50;59.80;;;;;;5069031;28;20571;-91
2023/04/24 10:50:57;;;;;;;29.63;6.50;;;16.50;59.80;;;;;;5069724;28;20702;-91
2023/04/24 10:53:28;;;;;;;44.33;7.43;;;16.50;59.80;;;;;;5068739;28;20207;-91
2023/04/24 10:56:00;;;;;;;36.73;6.73;;;16.50;59.80;;;;;;5070877;28;20238;-91
2023/04/24 10:58:40;;;;;;;26.23;5.90;;;16.50;59.80;;;;;;5070886;28;20678;-90
2023/04/24 11:01:07;;;;;;;24.40;5.97;;;16.60;59.80;;;;;;5066708;28;20210;-91
2023/04/24 11:03:36;;;;;;;27.73;6.50;;;16.60;59.80;;;;;;5069846;28;20667;-92
2023/04/24 11:06:05;;;;;;;25.57;6.33;;;16.60;59.80;;;;;;5071300;28;20258;-91
2023/04/24 11:08:37;;;;;;;22.70;5.87;;;16.60;59.80;;;;;;5066129;28;20198;-91
2023/04/24 11:11:09;;;;;;;30.90;6.03;;;16.70;59.90;;;;;;5050346;28;20241;-91
2023/04/24 11:14:09;;;;;;;31.27;6.60;;;16.70;59.90;;;;;;5068075;28;20250;-92
2023/04/24 11:16:52;;;;;;;30.30;6.13;;;16.70;59.90;;;;;;5081154;28;20252;-91
2023/04/24 11:19:24;;;;;;;26.37;5.93;;;16.70;59.80;;;;;;5064983;28;20269;-91
2023/04/24 11:21:59;;;;;;;23.80;5.43;;;16.80;60.00;;;;;;5070028;28;20207;-91
2023/04/24 11:24:28;;;;;;;27.77;6.03;;;16.80;60.00;;;;;;5052981;28;20203;-91
2023/04/24 11:26:57;;;;;;;22.77;5.57;;;16.80;59.90;;;;;;5069089;28;20242;-91
2023/04/24 11:29:42;;;;;;;28.90;6.53;;;16.80;60.00;;;;;;5069624;28;20285;-90
2023/04/24 11:32:20;;;;;;;31.07;6.63;;;16.80;60.00;;;;;;5069208;28;20214;-91
2023/04/24 11:34:48;;;;;;;32.90;6.60;;;16.80;60.00;;;;;;5070230;28;20610;-91
2023/04/24 11:37:16;;;;;;;32.67;6.73;;;16.90;60.70;;;;;;5068604;28;20329;-91
2023/04/24 11:39:43;;;;;;;32.73;7.80;;;16.90;60.00;;;;;;5065476;28;20319;-91
2023/04/24 11:42:10;;;;;;;58.13;9.80;;;17.00;60.00;;;;;;5072947;28;20272;-91
2023/04/24 11:44:39;;;;;;;37.80;8.27;;;17.00;60.00;;;;;;5086145;28;20195;-91
2023/04/24 11:47:06;;;;;;;56.63;9.10;;;17.00;60.00;;;;;;5085514;28;20292;-91
2023/04/24 11:49:33;;;;;;;29.50;7.33;;;17.00;60.00;;;;;;5065598;28;20242;-90
2023/04/24 11:52:02;;;;;;;26.00;6.67;;;17.00;59.90;;;;;;5070209;28;20306;-91
2023/04/24 11:54:29;;;;;;;40.33;8.03;;;17.10;60.00;;;;;;5061046;28;20309;-93
2023/04/24 11:56:57;;;;;;;23.40;6.47;;;17.10;59.90;;;;;;5061030;28;20321;-91
2023/04/24 11:59:24;;;;;;;25.10;6.63;;;17.10;60.00;;;;;;5070724;28;20290;-91
2023/04/24 12:01:53;;;;;;;22.57;6.07;;;17.20;60.00;;;;;;5068380;28;20290;-91
2023/04/24 12:04:20;;;;;;;25.20;5.97;;;17.20;60.00;;;;;;5058063;28;20309;-90
2023/04/24 12:07:03;;;;;;;25.03;6.07;;;17.20;59.90;;;;;;5057189;28;20229;-92
2023/04/24 12:09:40;;;;;;;28.33;6.33;;;17.20;60.00;;;;;;5070048;28;20325;-92
2023/04/24 12:12:07;;;;;;;29.37;6.27;;;17.20;59.90;;;;;;5076105;28;20227;-92
2023/04/24 12:14:43;;;;;;;34.03;6.77;;;17.30;60.00;;;;;;5069957;28;20203;-90
2023/04/24 12:17:12;;;;;;;19.50;5.53;;;17.20;59.90;;;;;;5065934;28;20231;-91
2023/04/24 12:19:39;;;;;;;27.30;6.80;;;17.30;60.00;;;;;;5058465;28;20234;-91
2023/04/24 12:22:07;;;;;;;37.37;7.17;;;17.30;60.00;;;;;;5068826;28;20651;-94
2023/04/24 12:24:34;;;;;;;27.93;6.13;;;17.30;60.00;;;;;;5066306;28;20249;-95
2023/04/24 12:27:02;;;;;;;29.20;6.37;;;17.30;60.00;;;;;;5058794;28;20223;-93
2023/04/24 12:29:32;;;;;;;26.77;6.13;;;17.40;60.10;;;;;;5066295;28;20206;-92
2023/04/24 12:31:59;;;;;;;52.90;8.27;;;17.40;60.10;;;;;;5066321;28;20409;-92
2023/04/24 12:34:28;;;;;;;28.07;6.53;;;17.40;60.10;;;;;;5065565;28;20294;-93
2023/04/24 12:36:54;;;;;;;34.20;6.80;;;17.40;60.10;;;;;;5063089;28;20223;-93
2023/04/24 12:39:28;;;;;;;30.87;6.50;;;17.40;60.20;;;;;;5046615;28;20214;-93
2023/04/24 12:41:57;;;;;;;47.10;8.60;;;17.50;60.20;;;;;;5066844;28;20301;-91